createdAt,value
2019-01-27T00:00:54.348Z,986.06
2019-01-27T00:01:54.320Z,986.08
2019-01-27T00:02:54.305Z,986.01
2019-01-27T00:03:54.275Z,986.01
2019-01-27T00:04:54.256Z,985.91
2019-01-27T00:05:54.239Z,985.98
2019-01-27T00:06:54.221Z,985.93
2019-01-27T00:07:54.194Z,985.92
2019-01-27T00:08:54.178Z,985.84
2019-01-27T00:09:54.156Z,985.85
2019-01-27T00:10:54.133Z,985.83
2019-01-27T00:11:54.105Z,985.83
2019-01-27T00:12:54.088Z,985.81
2019-01-27T00:13:54.063Z,985.78
2019-01-27T00:14:54.052Z,985.78
2019-01-27T00:15:54.021Z,985.73
2019-01-27T00:16:54.003Z,985.71
2019-01-27T00:17:53.980Z,985.75
2019-01-27T00:18:53.970Z,985.70
2019-01-27T00:19:53.935Z,985.71
2019-01-27T00:20:53.913Z,985.71
2019-01-27T00:21:53.919Z,985.69
2019-01-27T00:22:53.871Z,985.62
2019-01-27T00:23:53.849Z,985.60
2019-01-27T00:24:53.828Z,985.66
2019-01-27T00:25:53.807Z,985.61
2019-01-27T00:26:53.796Z,985.63
2019-01-27T00:27:53.764Z,985.66
2019-01-27T00:28:53.742Z,985.62
2019-01-27T00:29:53.735Z,985.58
2019-01-27T00:30:53.699Z,985.46
2019-01-27T00:31:53.679Z,985.43
2019-01-27T00:32:53.666Z,985.36
2019-01-27T00:33:53.641Z,985.41
2019-01-27T00:34:53.617Z,985.31
2019-01-27T00:35:53.612Z,985.36
2019-01-27T00:36:53.575Z,985.37
2019-01-27T00:37:53.566Z,985.34
2019-01-27T00:38:53.534Z,985.29
2019-01-27T00:39:53.506Z,985.29
2019-01-27T00:40:53.488Z,985.27
2019-01-27T00:41:53.466Z,985.33
2019-01-27T00:42:53.444Z,985.25
2019-01-27T00:43:53.422Z,985.18
2019-01-27T00:44:53.406Z,985.22
2019-01-27T00:45:53.385Z,985.11
2019-01-27T00:46:53.360Z,985.06
2019-01-27T00:47:53.340Z,985.13
2019-01-27T00:48:53.316Z,985.16
2019-01-27T00:49:53.294Z,985.10
2019-01-27T00:50:53.272Z,985.08
2019-01-27T00:51:53.250Z,985.00
2019-01-27T00:52:53.232Z,985.06
2019-01-27T00:53:53.217Z,984.99
2019-01-27T00:54:53.187Z,984.95
2019-01-27T00:55:53.166Z,985.01
2019-01-27T00:56:53.144Z,984.95
2019-01-27T00:57:53.127Z,985.05
2019-01-27T00:58:53.104Z,984.92
2019-01-27T00:59:53.082Z,984.86
2019-01-27T01:00:53.064Z,984.87
2019-01-27T01:01:53.042Z,984.92
2019-01-27T01:02:53.024Z,984.82
2019-01-27T01:03:52.997Z,984.86
2019-01-27T01:04:52.985Z,984.79
2019-01-27T01:05:52.956Z,984.78
2019-01-27T01:06:52.940Z,984.74
2019-01-27T01:07:52.919Z,984.72
2019-01-27T01:08:52.891Z,984.77
2019-01-27T01:09:52.868Z,984.74
2019-01-27T01:10:52.848Z,984.71
2019-01-27T01:11:53.479Z,984.72
2019-01-27T01:12:52.805Z,984.68
2019-01-27T01:13:52.785Z,984.70
2019-01-27T01:14:52.774Z,984.74
2019-01-27T01:15:52.740Z,984.63
2019-01-27T01:16:52.718Z,984.52
2019-01-27T01:17:52.694Z,984.56
2019-01-27T01:18:52.673Z,984.49
2019-01-27T01:19:52.653Z,984.53
2019-01-27T01:20:52.632Z,984.55
2019-01-27T01:21:52.612Z,984.48
2019-01-27T01:22:52.586Z,984.46
2019-01-27T01:23:52.569Z,984.45
2019-01-27T01:24:52.548Z,984.41
2019-01-27T01:25:52.534Z,984.46
2019-01-27T01:26:52.510Z,984.49
2019-01-27T01:27:52.482Z,984.40
2019-01-27T01:28:52.462Z,984.44
2019-01-27T01:29:52.441Z,984.39
2019-01-27T01:30:52.416Z,984.35
2019-01-27T01:31:52.396Z,984.38
2019-01-27T01:32:52.379Z,984.36
2019-01-27T01:33:52.356Z,984.40
2019-01-27T01:34:52.341Z,984.39
2019-01-27T01:35:52.312Z,984.36
2019-01-27T01:36:52.290Z,984.36
2019-01-27T01:37:52.266Z,984.36
2019-01-27T01:38:52.244Z,984.34
2019-01-27T01:39:52.223Z,984.24
2019-01-27T01:40:52.206Z,984.33
2019-01-27T01:41:52.194Z,984.32
2019-01-27T01:42:52.160Z,984.25
2019-01-27T01:43:52.141Z,984.33
2019-01-27T01:44:52.123Z,984.26
2019-01-27T01:45:52.097Z,984.21
2019-01-27T01:46:52.089Z,984.17
2019-01-27T01:47:52.053Z,984.20
2019-01-27T01:48:52.042Z,984.20
2019-01-27T01:49:52.012Z,984.19
2019-01-27T01:50:51.999Z,984.12
2019-01-27T01:51:51.967Z,984.08
2019-01-27T01:52:51.950Z,984.04
2019-01-27T01:53:51.929Z,984.02
2019-01-27T01:54:51.905Z,983.99
2019-01-27T01:55:51.893Z,983.92
2019-01-27T01:56:51.862Z,983.95
2019-01-27T01:57:51.848Z,983.95
2019-01-27T01:58:51.819Z,983.82
2019-01-27T01:59:51.801Z,983.85
2019-01-27T02:00:51.779Z,983.82
2019-01-27T02:01:51.756Z,983.82
2019-01-27T02:02:51.732Z,983.77
2019-01-27T02:03:51.710Z,983.79
2019-01-27T02:04:51.689Z,983.79
2019-01-27T02:05:51.670Z,983.81
2019-01-27T02:06:51.656Z,983.77
2019-01-27T02:07:51.638Z,983.73
2019-01-27T02:08:51.615Z,983.69
2019-01-27T02:09:51.588Z,983.70
2019-01-27T02:10:51.564Z,983.58
2019-01-27T02:11:51.546Z,983.61
2019-01-27T02:12:51.519Z,983.54
2019-01-27T02:13:51.500Z,983.52
2019-01-27T02:14:51.477Z,983.46
2019-01-27T02:15:51.456Z,983.48
2019-01-27T02:16:51.434Z,983.47
2019-01-27T02:17:51.420Z,983.47
2019-01-27T02:18:51.395Z,983.48
2019-01-27T02:19:51.369Z,983.42
2019-01-27T02:20:51.350Z,983.40
2019-01-27T02:21:51.330Z,983.38
2019-01-27T02:22:51.307Z,983.36
2019-01-27T02:23:51.291Z,983.35
2019-01-27T02:24:51.265Z,983.31
2019-01-27T02:25:51.252Z,983.27
2019-01-27T02:26:51.222Z,983.26
2019-01-27T02:27:51.209Z,983.24
2019-01-27T02:28:51.182Z,983.21
2019-01-27T02:29:51.163Z,983.15
2019-01-27T02:30:51.146Z,983.10
2019-01-27T02:31:51.131Z,983.08
2019-01-27T02:32:51.096Z,983.08
2019-01-27T02:33:51.084Z,983.00
2019-01-27T02:34:51.055Z,983.03
2019-01-27T02:35:51.035Z,982.98
2019-01-27T02:36:51.010Z,982.94
2019-01-27T02:37:50.990Z,982.99
2019-01-27T02:38:50.967Z,982.96
2019-01-27T02:39:50.948Z,982.87
2019-01-27T02:40:50.927Z,982.83
2019-01-27T02:41:50.906Z,982.83
2019-01-27T02:42:50.884Z,982.79
2019-01-27T02:43:50.862Z,982.85
2019-01-27T02:44:50.842Z,982.76
2019-01-27T02:45:50.821Z,982.76
2019-01-27T02:46:50.800Z,982.71
2019-01-27T02:47:50.777Z,982.69
2019-01-27T02:48:50.763Z,982.69
2019-01-27T02:49:50.736Z,982.66
2019-01-27T02:50:50.715Z,982.61
2019-01-27T02:51:50.698Z,982.55
2019-01-27T02:52:50.671Z,982.54
2019-01-27T02:53:50.662Z,982.59
2019-01-27T02:54:50.636Z,982.53
2019-01-27T02:55:50.613Z,982.56
2019-01-27T02:56:50.588Z,982.51
2019-01-27T02:57:50.568Z,982.41
2019-01-27T02:58:50.544Z,982.43
2019-01-27T02:59:50.527Z,982.38
2019-01-27T03:00:50.511Z,982.33
2019-01-27T03:01:50.485Z,982.33
2019-01-27T03:02:50.460Z,982.31
2019-01-27T03:03:50.443Z,982.33
2019-01-27T03:04:50.420Z,982.36
2019-01-27T03:05:50.400Z,982.28
2019-01-27T03:06:50.376Z,982.28
2019-01-27T03:07:50.354Z,982.27
2019-01-27T03:08:50.333Z,982.25
2019-01-27T03:09:50.315Z,982.18
2019-01-27T03:10:50.297Z,982.17
2019-01-27T03:11:50.267Z,982.14
2019-01-27T03:12:50.245Z,982.17
2019-01-27T03:13:50.222Z,982.20
2019-01-27T03:14:50.202Z,982.16
2019-01-27T03:15:50.186Z,982.18
2019-01-27T03:16:50.162Z,982.18
2019-01-27T03:17:50.139Z,982.13
2019-01-27T03:18:50.131Z,982.19
2019-01-27T03:19:50.102Z,982.14
2019-01-27T03:20:50.079Z,982.16
2019-01-27T03:21:50.056Z,982.07
2019-01-27T03:22:50.034Z,982.05
2019-01-27T03:23:50.011Z,981.98
2019-01-27T03:24:49.997Z,982.04
2019-01-27T03:25:49.971Z,982.01
2019-01-27T03:26:49.945Z,982.02
2019-01-27T03:27:49.933Z,981.94
2019-01-27T03:28:49.902Z,981.91
2019-01-27T03:29:49.888Z,981.87
2019-01-27T03:30:49.903Z,981.84
2019-01-27T03:31:49.843Z,981.84
2019-01-27T03:32:49.820Z,981.75
2019-01-27T03:33:49.794Z,981.73
2019-01-27T03:34:49.776Z,981.76
2019-01-27T03:35:49.752Z,981.76
2019-01-27T03:36:49.733Z,981.77
2019-01-27T03:37:49.719Z,981.78
2019-01-27T03:38:49.689Z,981.82
2019-01-27T03:39:49.675Z,981.76
2019-01-27T03:40:49.649Z,981.75
2019-01-27T03:41:49.628Z,981.76
2019-01-27T03:42:49.602Z,981.72
2019-01-27T03:43:49.583Z,981.70
2019-01-27T03:44:49.562Z,981.69
2019-01-27T03:45:49.541Z,981.60
2019-01-27T03:46:49.517Z,981.57
2019-01-27T03:47:49.497Z,981.56
2019-01-27T03:48:49.476Z,981.52
2019-01-27T03:49:49.456Z,981.51
2019-01-27T03:50:49.439Z,981.52
2019-01-27T03:51:49.412Z,981.45
2019-01-27T03:52:49.391Z,981.48
2019-01-27T03:53:49.369Z,981.47
2019-01-27T03:54:49.348Z,981.48
2019-01-27T03:55:49.325Z,981.47
2019-01-27T03:56:49.310Z,981.43
2019-01-27T03:57:49.284Z,981.50
2019-01-27T03:58:49.260Z,981.54
2019-01-27T03:59:49.239Z,981.39
2019-01-27T04:00:49.219Z,981.42
2019-01-27T04:01:49.198Z,981.44
2019-01-27T04:02:49.177Z,981.37
2019-01-27T04:03:49.154Z,981.44
2019-01-27T04:04:49.138Z,981.41
2019-01-27T04:05:49.112Z,981.38
2019-01-27T04:06:49.090Z,981.31
2019-01-27T04:07:49.074Z,981.27
2019-01-27T04:08:49.048Z,981.30
2019-01-27T04:09:49.034Z,981.35
2019-01-27T04:10:49.003Z,981.33
2019-01-27T04:11:48.987Z,981.29
2019-01-27T04:12:48.966Z,981.31
2019-01-27T04:13:48.943Z,981.32
2019-01-27T04:14:48.924Z,981.31
2019-01-27T04:15:48.899Z,981.25
2019-01-27T04:16:49.156Z,981.19
2019-01-27T04:17:48.861Z,981.17
2019-01-27T04:18:48.863Z,981.17
2019-01-27T04:19:48.813Z,981.10
2019-01-27T04:20:48.795Z,981.09
2019-01-27T04:21:48.773Z,981.07
2019-01-27T04:22:48.751Z,981.03
2019-01-27T04:23:48.760Z,981.04
2019-01-27T04:24:48.706Z,980.95
2019-01-27T04:25:48.684Z,980.94
2019-01-27T04:26:48.663Z,980.87
2019-01-27T04:27:48.644Z,980.87
2019-01-27T04:28:48.621Z,980.82
2019-01-27T04:29:48.598Z,980.84
2019-01-27T04:30:48.575Z,980.83
2019-01-27T04:31:48.561Z,980.83
2019-01-27T04:32:48.539Z,980.81
2019-01-27T04:33:48.515Z,980.79
2019-01-27T04:34:48.490Z,980.79
2019-01-27T04:35:48.472Z,980.77
2019-01-27T04:36:48.453Z,980.73
2019-01-27T04:37:48.433Z,980.73
2019-01-27T04:38:48.407Z,980.76
2019-01-27T04:39:48.385Z,980.71
2019-01-27T04:40:48.364Z,980.63
2019-01-27T04:41:48.345Z,980.64
2019-01-27T04:42:48.327Z,980.58
2019-01-27T04:43:48.302Z,980.57
2019-01-27T04:44:48.281Z,980.54
2019-01-27T04:45:48.260Z,980.47
2019-01-27T04:46:48.243Z,980.47
2019-01-27T04:47:48.220Z,980.48
2019-01-27T04:48:48.197Z,980.48
2019-01-27T04:49:48.175Z,980.49
2019-01-27T04:50:48.152Z,980.45
2019-01-27T04:51:48.133Z,980.43
2019-01-27T04:52:48.108Z,980.43
2019-01-27T04:53:48.091Z,980.38
2019-01-27T04:54:48.068Z,980.33
2019-01-27T04:55:48.062Z,980.32
2019-01-27T04:56:48.028Z,980.33
2019-01-27T04:57:48.007Z,980.34
2019-01-27T04:58:47.983Z,980.37
2019-01-27T04:59:47.961Z,980.34
2019-01-27T05:00:47.941Z,980.33
2019-01-27T05:01:47.916Z,980.37
2019-01-27T05:02:47.894Z,980.30
2019-01-27T05:03:47.874Z,980.29
2019-01-27T05:04:47.853Z,980.28
2019-01-27T05:05:47.844Z,980.27
2019-01-27T05:06:47.807Z,980.25
2019-01-27T05:07:47.787Z,980.27
2019-01-27T05:08:47.765Z,980.26
2019-01-27T05:09:47.746Z,980.19
2019-01-27T05:10:47.734Z,980.19
2019-01-27T05:11:47.703Z,980.20
2019-01-27T05:12:47.683Z,980.26
2019-01-27T05:13:47.670Z,980.23
2019-01-27T05:14:47.638Z,980.14
2019-01-27T05:15:47.622Z,980.17
2019-01-27T05:16:47.597Z,980.19
2019-01-27T05:17:47.574Z,980.16
2019-01-27T05:18:47.553Z,980.09
2019-01-27T05:19:47.532Z,980.12
2019-01-27T05:20:47.513Z,980.12
2019-01-27T05:21:47.491Z,980.17
2019-01-27T05:22:47.483Z,980.15
2019-01-27T05:23:47.450Z,980.09
2019-01-27T05:24:47.423Z,980.04
2019-01-27T05:25:47.471Z,979.99
2019-01-27T05:26:47.390Z,980.00
2019-01-27T05:27:47.359Z,979.99
2019-01-27T05:28:47.350Z,979.95
2019-01-27T05:29:47.325Z,979.92
2019-01-27T05:30:47.300Z,979.90
2019-01-27T05:31:47.278Z,979.93
2019-01-27T05:32:47.270Z,979.86
2019-01-27T05:33:47.248Z,979.80
2019-01-27T05:34:47.212Z,979.81
2019-01-27T05:35:47.187Z,979.78
2019-01-27T05:36:47.276Z,979.77
2019-01-27T05:37:47.151Z,979.79
2019-01-27T05:38:47.134Z,979.76
2019-01-27T05:39:47.105Z,979.76
2019-01-27T05:40:47.093Z,979.69
2019-01-27T05:41:47.064Z,979.74
2019-01-27T05:42:47.075Z,979.76
2019-01-27T05:43:47.023Z,979.68
2019-01-27T05:44:46.995Z,979.68
2019-01-27T05:45:46.978Z,979.67
2019-01-27T05:46:46.955Z,979.73
2019-01-27T05:47:46.934Z,979.68
2019-01-27T05:48:46.915Z,979.58
2019-01-27T05:49:46.895Z,979.60
2019-01-27T05:50:46.869Z,979.53
2019-01-27T05:51:46.847Z,979.59
2019-01-27T05:52:46.826Z,979.49
2019-01-27T05:53:46.812Z,979.60
2019-01-27T05:54:46.797Z,979.53
2019-01-27T05:55:46.764Z,979.49
2019-01-27T05:56:46.741Z,979.48
2019-01-27T05:57:46.726Z,979.51
2019-01-27T05:58:46.706Z,979.52
2019-01-27T05:59:46.676Z,979.44
2019-01-27T06:00:46.687Z,979.44
2019-01-27T06:01:46.637Z,979.45
2019-01-27T06:02:46.612Z,979.45
2019-01-27T06:03:46.605Z,979.40
2019-01-27T06:04:46.571Z,979.36
2019-01-27T06:05:46.557Z,979.37
2019-01-27T06:06:46.528Z,979.35
2019-01-27T06:07:46.508Z,979.34
2019-01-27T06:08:46.486Z,979.34
2019-01-27T06:09:46.468Z,979.32
2019-01-27T06:10:46.440Z,979.37
2019-01-27T06:11:46.419Z,979.32
2019-01-27T06:12:46.406Z,979.33
2019-01-27T06:13:46.377Z,979.32
2019-01-27T06:14:46.358Z,979.29
2019-01-27T06:15:46.335Z,979.28
2019-01-27T06:16:46.316Z,979.33
2019-01-27T06:17:46.293Z,979.39
2019-01-27T06:18:46.272Z,979.33
2019-01-27T06:19:46.256Z,979.31
2019-01-27T06:20:46.228Z,979.26
2019-01-27T06:21:46.208Z,979.26
2019-01-27T06:22:46.186Z,979.30
2019-01-27T06:23:46.171Z,979.26
2019-01-27T06:24:46.161Z,979.32
2019-01-27T06:25:46.130Z,979.23
2019-01-27T06:26:46.101Z,979.27
2019-01-27T06:27:46.081Z,979.17
2019-01-27T06:28:46.103Z,979.22
2019-01-27T06:29:46.038Z,979.18
2019-01-27T06:30:46.016Z,979.18
2019-01-27T06:31:46.002Z,979.15
2019-01-27T06:32:45.983Z,979.13
2019-01-27T06:33:45.959Z,979.14
2019-01-27T06:34:45.936Z,979.15
2019-01-27T06:35:45.928Z,979.12
2019-01-27T06:36:45.926Z,979.07
2019-01-27T06:37:45.874Z,979.04
2019-01-27T06:38:45.853Z,979.05
2019-01-27T06:39:45.832Z,979.09
2019-01-27T06:40:45.813Z,979.06
2019-01-27T06:41:45.790Z,979.08
2019-01-27T06:42:45.768Z,979.09
2019-01-27T06:43:45.747Z,979.02
2019-01-27T06:44:45.731Z,979.05
2019-01-27T06:45:45.710Z,979.00
2019-01-27T06:46:45.686Z,979.01
2019-01-27T06:47:45.663Z,979.01
2019-01-27T06:48:45.652Z,978.97
2019-01-27T06:49:45.628Z,978.92
2019-01-27T06:50:45.617Z,978.94
2019-01-27T06:51:45.584Z,978.93
2019-01-27T06:52:45.559Z,978.89
2019-01-27T06:53:45.548Z,978.94
2019-01-27T06:54:45.519Z,978.96
2019-01-27T06:55:45.496Z,978.92
2019-01-27T06:56:45.474Z,978.90
2019-01-27T06:57:45.458Z,978.88
2019-01-27T06:58:45.455Z,978.91
2019-01-27T06:59:45.419Z,978.90
2019-01-27T07:00:45.394Z,978.92
2019-01-27T07:01:45.376Z,978.90
2019-01-27T07:02:45.349Z,978.85
2019-01-27T07:03:45.334Z,978.89
2019-01-27T07:04:45.312Z,978.90
2019-01-27T07:05:45.295Z,978.85
2019-01-27T07:06:45.280Z,978.83
2019-01-27T07:07:45.245Z,978.80
2019-01-27T07:08:45.233Z,978.82
2019-01-27T07:09:45.205Z,978.80
2019-01-27T07:10:45.185Z,978.75
2019-01-27T07:11:45.164Z,978.75
2019-01-27T07:12:45.146Z,978.76
2019-01-27T07:13:45.122Z,978.84
2019-01-27T07:14:45.099Z,978.79
2019-01-27T07:15:45.079Z,978.85
2019-01-27T07:16:45.059Z,978.80
2019-01-27T07:17:45.048Z,978.79
2019-01-27T07:18:45.015Z,978.72
2019-01-27T07:19:44.993Z,978.78
2019-01-27T07:20:44.974Z,978.71
2019-01-27T07:21:44.957Z,978.73
2019-01-27T07:22:44.937Z,978.71
2019-01-27T07:23:44.915Z,978.73
2019-01-27T07:24:44.898Z,978.70
2019-01-27T07:25:44.868Z,978.72
2019-01-27T07:26:44.850Z,978.68
2019-01-27T07:27:44.829Z,978.65
2019-01-27T07:28:44.809Z,978.69
2019-01-27T07:29:44.785Z,978.65
2019-01-27T07:30:44.763Z,978.69
2019-01-27T07:31:44.741Z,978.66
2019-01-27T07:32:44.727Z,978.63
2019-01-27T07:33:44.699Z,978.65
2019-01-27T07:34:44.692Z,978.65
2019-01-27T07:35:44.660Z,978.66
2019-01-27T07:36:44.651Z,978.65
2019-01-27T07:37:44.618Z,978.74
2019-01-27T07:38:44.595Z,978.73
2019-01-27T07:39:44.578Z,978.67
2019-01-27T07:40:44.552Z,978.62
2019-01-27T07:41:44.535Z,978.62
2019-01-27T07:42:44.514Z,978.60
2019-01-27T07:43:44.491Z,978.57
2019-01-27T07:44:44.471Z,978.58
2019-01-27T07:45:44.449Z,978.59
2019-01-27T07:46:44.427Z,978.57
2019-01-27T07:47:44.406Z,978.51
2019-01-27T07:48:44.384Z,978.54
2019-01-27T07:49:44.365Z,978.53
2019-01-27T07:50:44.350Z,978.49
2019-01-27T07:51:44.323Z,978.49
2019-01-27T07:52:44.300Z,978.50
2019-01-27T07:53:44.278Z,978.55
2019-01-27T07:54:44.260Z,978.52
2019-01-27T07:55:44.237Z,978.50
2019-01-27T07:56:44.223Z,978.44
2019-01-27T07:57:44.199Z,978.47
2019-01-27T07:58:44.174Z,978.43
2019-01-27T07:59:44.158Z,978.43
2019-01-27T08:00:44.132Z,978.42
2019-01-27T08:01:44.112Z,978.43
2019-01-27T08:02:44.095Z,978.45
2019-01-27T08:03:44.075Z,978.43
2019-01-27T08:04:44.060Z,978.48
2019-01-27T08:05:44.032Z,978.41
2019-01-27T08:06:44.011Z,978.40
2019-01-27T08:07:43.992Z,978.35
2019-01-27T08:08:43.971Z,978.34
2019-01-27T08:09:43.943Z,978.33
2019-01-27T08:10:43.922Z,978.33
2019-01-27T08:11:43.904Z,978.34
2019-01-27T08:12:43.884Z,978.35
2019-01-27T08:13:43.861Z,978.29
2019-01-27T08:14:43.843Z,978.35
2019-01-27T08:15:43.819Z,978.32
2019-01-27T08:16:43.794Z,978.35
2019-01-27T08:17:43.773Z,978.39
2019-01-27T08:18:43.755Z,978.34
2019-01-27T08:19:43.732Z,978.32
2019-01-27T08:20:43.717Z,978.35
2019-01-27T08:21:43.695Z,978.36
2019-01-27T08:22:43.672Z,978.34
2019-01-27T08:23:43.650Z,978.36
2019-01-27T08:24:43.661Z,978.35
2019-01-27T08:25:43.609Z,978.35
2019-01-27T08:26:43.592Z,978.36
2019-01-27T08:27:43.565Z,978.35
2019-01-27T08:28:43.552Z,978.32
2019-01-27T08:29:43.522Z,978.33
2019-01-27T08:30:43.504Z,978.32
2019-01-27T08:31:43.487Z,978.37
2019-01-27T08:32:43.463Z,978.33
2019-01-27T08:33:43.448Z,978.30
2019-01-27T08:34:43.432Z,978.29
2019-01-27T08:35:43.397Z,978.31
2019-01-27T08:36:43.395Z,978.30
2019-01-27T08:37:43.354Z,978.33
2019-01-27T08:38:43.367Z,978.33
2019-01-27T08:39:43.318Z,978.31
2019-01-27T08:40:43.298Z,978.25
2019-01-27T08:41:43.274Z,978.29
2019-01-27T08:42:43.471Z,978.30
2019-01-27T08:43:43.237Z,978.23
2019-01-27T08:44:43.215Z,978.22
2019-01-27T08:45:43.190Z,978.25
2019-01-27T08:46:43.171Z,978.25
2019-01-27T08:47:43.149Z,978.20
2019-01-27T08:48:43.126Z,978.31
2019-01-27T08:49:43.104Z,978.21
2019-01-27T08:50:43.085Z,978.17
2019-01-27T08:51:43.065Z,978.19
2019-01-27T08:52:43.044Z,978.20
2019-01-27T08:53:43.023Z,978.20
2019-01-27T08:54:43.006Z,978.11
2019-01-27T08:55:42.988Z,978.15
2019-01-27T08:56:42.957Z,978.18
2019-01-27T08:57:42.950Z,978.12
2019-01-27T08:58:42.921Z,978.06
2019-01-27T08:59:42.900Z,978.06
2019-01-27T09:00:42.878Z,978.08
2019-01-27T09:01:42.861Z,978.05
2019-01-27T09:02:42.836Z,978.09
2019-01-27T09:03:42.822Z,978.11
2019-01-27T09:04:42.811Z,978.06
2019-01-27T09:05:42.774Z,978.16
2019-01-27T09:06:42.753Z,978.12
2019-01-27T09:07:42.749Z,978.07
2019-01-27T09:08:42.712Z,978.12
2019-01-27T09:09:42.689Z,978.05
2019-01-27T09:10:42.667Z,978.06
2019-01-27T09:11:42.651Z,978.13
2019-01-27T09:12:42.632Z,978.07
2019-01-27T09:13:42.610Z,978.09
2019-01-27T09:14:42.593Z,978.10
2019-01-27T09:15:42.565Z,978.09
2019-01-27T09:16:42.550Z,978.08
2019-01-27T09:17:42.530Z,978.06
2019-01-27T09:18:42.509Z,978.02
2019-01-27T09:19:42.485Z,978.01
2019-01-27T09:20:42.514Z,978.03
2019-01-27T09:21:42.446Z,978.02
2019-01-27T09:22:42.423Z,978.07
2019-01-27T09:23:42.405Z,978.03
2019-01-27T09:24:42.387Z,978.05
2019-01-27T09:25:42.369Z,978.00
2019-01-27T09:26:42.349Z,978.01
2019-01-27T09:27:42.322Z,977.98
2019-01-27T09:28:42.310Z,977.98
2019-01-27T09:29:42.287Z,977.98
2019-01-27T09:30:42.269Z,977.96
2019-01-27T09:31:42.242Z,977.99
2019-01-27T09:32:42.234Z,978.00
2019-01-27T09:33:42.203Z,977.97
2019-01-27T09:34:42.185Z,977.94
2019-01-27T09:35:42.157Z,977.93
2019-01-27T09:36:42.138Z,977.94
2019-01-27T09:37:42.122Z,977.94
2019-01-27T09:38:42.108Z,977.97
2019-01-27T09:39:42.082Z,977.89
2019-01-27T09:40:42.060Z,977.91
2019-01-27T09:41:42.039Z,978.02
2019-01-27T09:42:42.017Z,977.93
2019-01-27T09:43:42.004Z,978.01
2019-01-27T09:44:41.975Z,977.95
2019-01-27T09:45:41.954Z,977.90
2019-01-27T09:46:41.931Z,977.92
2019-01-27T09:47:41.917Z,977.92
2019-01-27T09:48:41.891Z,977.91
2019-01-27T09:49:41.870Z,977.90
2019-01-27T09:50:41.852Z,977.93
2019-01-27T09:51:41.828Z,977.96
2019-01-27T09:52:41.814Z,977.94
2019-01-27T09:53:41.790Z,977.96
2019-01-27T09:54:41.768Z,977.97
2019-01-27T09:55:41.752Z,977.89
2019-01-27T09:56:41.729Z,977.85
2019-01-27T09:57:41.704Z,977.93
2019-01-27T09:58:41.693Z,977.95
2019-01-27T09:59:41.663Z,977.91
2019-01-27T10:00:41.640Z,977.97
2019-01-27T10:01:41.625Z,977.91
2019-01-27T10:02:41.605Z,977.92
2019-01-27T10:03:41.583Z,977.92
2019-01-27T10:04:41.555Z,977.90
2019-01-27T10:05:41.554Z,977.86
2019-01-27T10:06:41.528Z,977.90
2019-01-27T10:07:41.496Z,977.87
2019-01-27T10:08:41.476Z,977.90
2019-01-27T10:09:41.458Z,977.89
2019-01-27T10:10:41.445Z,977.90
2019-01-27T10:11:41.418Z,977.89
2019-01-27T10:12:41.393Z,977.88
2019-01-27T10:13:41.377Z,977.90
2019-01-27T10:14:41.352Z,977.89
2019-01-27T10:15:41.331Z,977.86
2019-01-27T10:16:41.308Z,977.83
2019-01-27T10:17:41.295Z,977.85
2019-01-27T10:18:41.269Z,977.86
2019-01-27T10:19:41.249Z,977.83
2019-01-27T10:20:41.231Z,977.89
2019-01-27T10:21:41.209Z,977.82
2019-01-27T10:22:41.201Z,977.87
2019-01-27T10:23:41.171Z,977.93
2019-01-27T10:24:41.145Z,977.86
2019-01-27T10:25:41.128Z,977.86
2019-01-27T10:26:41.108Z,977.79
2019-01-27T10:27:41.092Z,977.81
2019-01-27T10:28:41.078Z,977.82
2019-01-27T10:29:41.050Z,977.85
2019-01-27T10:30:41.029Z,977.87
2019-01-27T10:31:41.010Z,977.83
2019-01-27T10:32:40.985Z,977.87
2019-01-27T10:33:40.973Z,977.79
2019-01-27T10:34:40.945Z,977.88
2019-01-27T10:35:42.976Z,977.80
2019-01-27T10:36:40.904Z,977.76
2019-01-27T10:37:41.028Z,977.73
2019-01-27T10:38:40.861Z,977.74
2019-01-27T10:39:40.844Z,977.74
2019-01-27T10:40:40.820Z,977.74
2019-01-27T10:41:40.813Z,977.71
2019-01-27T10:42:40.778Z,977.68
2019-01-27T10:43:40.761Z,977.72
2019-01-27T10:44:40.742Z,977.73
2019-01-27T10:45:40.718Z,977.71
2019-01-27T10:46:40.694Z,977.82
2019-01-27T10:47:40.693Z,977.71
2019-01-27T10:48:40.653Z,977.65
2019-01-27T10:49:40.637Z,977.68
2019-01-27T10:50:40.614Z,977.67
2019-01-27T10:51:40.594Z,977.72
2019-01-27T10:52:40.574Z,977.63
2019-01-27T10:53:40.550Z,977.64
2019-01-27T10:54:40.528Z,977.62
2019-01-27T10:55:40.515Z,977.64
2019-01-27T10:56:40.489Z,977.59
2019-01-27T10:57:40.472Z,977.54
2019-01-27T10:58:40.452Z,977.62
2019-01-27T10:59:40.436Z,977.55
2019-01-27T11:00:40.414Z,977.56
2019-01-27T11:01:40.387Z,977.55
2019-01-27T11:02:40.367Z,977.52
2019-01-27T11:03:40.435Z,977.54
2019-01-27T11:04:40.329Z,977.52
2019-01-27T11:05:40.305Z,977.46
2019-01-27T11:06:40.284Z,977.48
2019-01-27T11:07:40.261Z,977.48
2019-01-27T11:08:40.251Z,977.50
2019-01-27T11:09:40.273Z,977.48
2019-01-27T11:10:40.205Z,977.48
2019-01-27T11:11:40.180Z,977.45
2019-01-27T11:12:40.171Z,977.44
2019-01-27T11:13:40.140Z,977.49
2019-01-27T11:14:40.120Z,977.42
2019-01-27T11:15:40.100Z,977.47
2019-01-27T11:16:40.087Z,977.43
2019-01-27T11:17:40.059Z,977.48
2019-01-27T11:18:40.042Z,977.45
2019-01-27T11:19:40.022Z,977.34
2019-01-27T11:20:40.272Z,977.38
2019-01-27T11:21:39.983Z,977.34
2019-01-27T11:22:39.965Z,977.35
2019-01-27T11:23:39.942Z,977.38
2019-01-27T11:24:39.915Z,977.41
2019-01-27T11:25:39.901Z,977.29
2019-01-27T11:26:39.876Z,977.38
2019-01-27T11:27:39.875Z,977.38
2019-01-27T11:28:39.839Z,977.31
2019-01-27T11:29:39.813Z,977.35
2019-01-27T11:30:39.797Z,977.36
2019-01-27T11:31:40.018Z,977.24
2019-01-27T11:32:39.758Z,977.33
2019-01-27T11:33:39.745Z,977.32
2019-01-27T11:34:39.723Z,977.25
2019-01-27T11:35:39.701Z,977.26
2019-01-27T11:36:39.676Z,977.23
2019-01-27T11:37:39.654Z,977.27
2019-01-27T11:38:39.630Z,977.23
2019-01-27T11:39:39.615Z,977.26
2019-01-27T11:40:39.597Z,977.27
2019-01-27T11:41:39.631Z,977.26
2019-01-27T11:42:39.560Z,977.26
2019-01-27T11:43:39.541Z,977.21
2019-01-27T11:44:39.516Z,977.18
2019-01-27T11:45:39.499Z,977.21
2019-01-27T11:46:39.468Z,977.20
2019-01-27T11:47:39.456Z,977.13
2019-01-27T11:48:39.425Z,977.18
2019-01-27T11:49:39.405Z,977.14
2019-01-27T11:50:39.384Z,977.11
2019-01-27T11:51:39.361Z,977.10
2019-01-27T11:52:39.346Z,977.12
2019-01-27T11:53:39.328Z,977.06
2019-01-27T11:54:39.301Z,977.09
2019-01-27T11:55:39.283Z,977.10
2019-01-27T11:56:39.265Z,977.07
2019-01-27T11:57:39.245Z,977.07
2019-01-27T11:58:39.220Z,977.02
2019-01-27T11:59:39.203Z,977.06
2019-01-27T12:00:39.391Z,977.01
2019-01-27T12:01:39.157Z,977.02
2019-01-27T12:02:39.147Z,977.03
2019-01-27T12:03:39.122Z,977.01
2019-01-27T12:04:39.103Z,977.04
2019-01-27T12:05:39.075Z,977.02
2019-01-27T12:06:39.061Z,976.99
2019-01-27T12:07:39.032Z,977.00
2019-01-27T12:08:39.020Z,976.98
2019-01-27T12:09:38.997Z,977.00
2019-01-27T12:10:38.975Z,976.95
2019-01-27T12:11:38.957Z,976.98
2019-01-27T12:12:38.988Z,976.98
2019-01-27T12:13:38.916Z,976.95
2019-01-27T12:14:38.892Z,977.00
2019-01-27T12:15:38.868Z,976.94
2019-01-27T12:16:38.858Z,976.91
2019-01-27T12:17:38.838Z,976.91
2019-01-27T12:18:38.810Z,976.90
2019-01-27T12:19:40.279Z,976.89
2019-01-27T12:20:38.766Z,976.88
2019-01-27T12:21:38.746Z,976.88
2019-01-27T12:22:38.731Z,976.83
2019-01-27T12:23:38.719Z,976.88
2019-01-27T12:24:38.686Z,976.78
2019-01-27T12:25:38.668Z,976.81
2019-01-27T12:26:38.651Z,976.75
2019-01-27T12:27:38.625Z,976.75
2019-01-27T12:28:38.666Z,976.72